createdAt,value
2022-08-08T00:01:08.635Z,16.10
2022-08-08T00:03:48.830Z,16.00
2022-08-08T00:06:34.731Z,15.85
2022-08-08T00:09:07.847Z,15.89
2022-08-08T00:11:46.500Z,15.84
2022-08-08T00:14:48.167Z,15.77
2022-08-08T00:18:02.539Z,15.57
2022-08-08T00:20:31.926Z,15.46
2022-08-08T00:23:06.404Z,15.52
2022-08-08T00:25:46.438Z,15.40
2022-08-08T00:28:34.051Z,15.38
2022-08-08T00:32:20.177Z,15.47
2022-08-08T00:34:19.962Z,15.29
2022-08-08T00:37:03.461Z,15.55
2022-08-08T00:41:12.221Z,15.58
2022-08-08T00:42:59.488Z,15.73
2022-08-08T00:45:59.277Z,15.66
2022-08-08T00:49:02.671Z,15.79
2022-08-08T00:51:52.589Z,15.54
2022-08-08T00:54:56.244Z,15.55
2022-08-08T00:58:12.593Z,15.54
2022-08-08T01:00:52.753Z,15.43
2022-08-08T01:03:59.311Z,15.39
2022-08-08T01:07:17.620Z,15.28
2022-08-08T01:10:17.108Z,15.30
2022-08-08T01:13:08.617Z,15.23
2022-08-08T01:16:01.513Z,15.13
2022-08-08T01:19:13.818Z,15.18
2022-08-08T01:22:23.191Z,15.23
2022-08-08T01:25:26.265Z,15.03
2022-08-08T01:28:07.379Z,15.17
2022-08-08T01:32:02.850Z,15.13
2022-08-08T01:34:38.069Z,14.90
2022-08-08T01:37:57.465Z,14.97
2022-08-08T01:40:30.947Z,15.26
2022-08-08T01:43:05.828Z,15.18
2022-08-08T01:45:54.229Z,15.09
2022-08-08T01:48:43.815Z,15.02
2022-08-08T01:52:05.687Z,14.96
2022-08-08T01:55:27.111Z,14.91
2022-08-08T01:58:12.087Z,15.04
2022-08-08T02:00:31.110Z,14.93
2022-08-08T02:03:49.288Z,14.90
2022-08-08T02:06:32.778Z,14.98
2022-08-08T02:09:17.397Z,14.83
2022-08-08T02:11:59.074Z,14.78
2022-08-08T02:14:49.916Z,14.68
2022-08-08T02:17:36.405Z,14.62
2022-08-08T02:21:01.426Z,14.62
2022-08-08T02:23:15.982Z,14.58
2022-08-08T02:25:50.895Z,14.53
2022-08-08T02:28:35.500Z,14.51
2022-08-08T02:31:43.927Z,14.48
2022-08-08T02:34:14.894Z,14.41
2022-08-08T02:36:56.540Z,14.30
2022-08-08T02:39:58.553Z,14.30
2022-08-08T02:44:35.221Z,14.07
2022-08-08T02:46:31.458Z,14.16
2022-08-08T02:49:50.795Z,14.03
2022-08-08T02:52:50.946Z,14.10
2022-08-08T02:56:01.567Z,14.10
2022-08-08T02:59:05.735Z,14.02
2022-08-08T03:02:08.787Z,13.95
2022-08-08T03:05:45.105Z,13.97
2022-08-08T03:09:00.952Z,13.89
2022-08-08T03:12:05.967Z,13.87
2022-08-08T03:15:59.072Z,13.82
2022-08-08T03:17:51.976Z,13.75
2022-08-08T03:20:43.139Z,13.83
2022-08-08T03:23:17.729Z,13.84
2022-08-08T03:25:46.780Z,13.76
2022-08-08T03:28:21.896Z,13.79
2022-08-08T03:31:13.545Z,13.81
2022-08-08T03:33:54.769Z,13.77
2022-08-08T03:36:30.307Z,13.69
2022-08-08T03:39:14.906Z,13.68
2022-08-08T03:42:12.097Z,13.70
2022-08-08T03:44:35.008Z,13.70
2022-08-08T03:47:13.989Z,13.70
2022-08-08T03:49:59.652Z,13.64
2022-08-08T03:52:31.417Z,13.68
2022-08-08T03:55:09.715Z,13.71
2022-08-08T03:58:34.521Z,13.79
2022-08-08T04:00:30.517Z,13.72
2022-08-08T04:03:01.860Z,13.73
2022-08-08T04:05:33.408Z,13.67
2022-08-08T04:08:05.072Z,13.66
2022-08-08T04:10:36.994Z,13.62
2022-08-08T04:13:18.089Z,13.68
2022-08-08T04:15:54.967Z,13.87
2022-08-08T04:18:35.881Z,13.93
2022-08-08T04:21:09.254Z,13.84
2022-08-08T04:24:05.733Z,13.88
2022-08-08T04:26:26.292Z,14.02
2022-08-08T04:29:03.988Z,13.97
2022-08-08T04:31:59.249Z,13.87
2022-08-08T04:34:20.113Z,14.09
2022-08-08T04:36:47.523Z,14.09
2022-08-08T04:40:05.962Z,14.00
2022-08-08T04:42:04.441Z,14.05
2022-08-08T04:44:33.819Z,14.00
2022-08-08T04:47:01.425Z,14.09
2022-08-08T04:50:01.197Z,14.24
2022-08-08T04:52:16.541Z,14.33
2022-08-08T04:54:46.148Z,14.49
2022-08-08T04:57:19.489Z,14.70
2022-08-08T04:59:46.920Z,14.80
2022-08-08T05:02:14.600Z,14.82
2022-08-08T05:04:44.324Z,14.94
2022-08-08T05:07:12.208Z,15.12
2022-08-08T05:09:42.877Z,15.15
2022-08-08T05:12:20.848Z,15.20
2022-08-08T05:14:52.360Z,15.25
2022-08-08T05:17:20.748Z,15.49
2022-08-08T05:20:09.147Z,15.73
2022-08-08T05:22:36.948Z,15.89
2022-08-08T05:25:04.950Z,15.97
2022-08-08T05:27:33.016Z,15.85
2022-08-08T05:30:03.214Z,15.92
2022-08-08T05:32:36.130Z,16.15
2022-08-08T05:35:05.713Z,16.39
2022-08-08T05:37:53.339Z,16.55
2022-08-08T05:40:28.713Z,16.71
2022-08-08T05:43:02.816Z,16.79
2022-08-08T05:45:43.220Z,16.82
2022-08-08T05:48:28.725Z,17.05
2022-08-08T05:51:13.405Z,17.06
2022-08-08T05:53:56.082Z,17.17
2022-08-08T05:56:31.764Z,17.39
2022-08-08T05:59:05.046Z,17.44
2022-08-08T06:01:52.527Z,17.68
2022-08-08T06:04:26.517Z,17.77
2022-08-08T06:06:56.355Z,17.65
2022-08-08T06:09:41.608Z,17.82
2022-08-08T06:12:18.699Z,18.08
2022-08-08T06:15:00.633Z,18.12
2022-08-08T06:17:50.487Z,18.03
2022-08-08T06:20:17.388Z,18.17
2022-08-08T06:22:49.477Z,18.26
2022-08-08T06:25:18.170Z,18.04
2022-08-08T06:27:49.837Z,18.23
2022-08-08T06:30:20.143Z,18.36
2022-08-08T06:33:00.928Z,18.52
2022-08-08T06:36:08.188Z,18.73
2022-08-08T06:38:27.404Z,18.80
2022-08-08T06:41:05.058Z,18.89
2022-08-08T06:43:36.111Z,18.97
2022-08-08T06:46:04.085Z,19.07
2022-08-08T06:48:33.875Z,19.29
2022-08-08T06:51:07.474Z,19.45
2022-08-08T06:53:39.366Z,19.31
2022-08-08T06:56:08.766Z,19.40
2022-08-08T06:58:36.896Z,19.44
2022-08-08T07:01:11.662Z,19.60
2022-08-08T07:04:37.969Z,19.91
2022-08-08T07:06:54.400Z,20.07
2022-08-08T07:09:45.218Z,20.46
2022-08-08T07:12:23.927Z,20.99
2022-08-08T07:15:04.874Z,21.33
2022-08-08T07:17:40.412Z,22.00
2022-08-08T07:20:30.774Z,22.97
2022-08-08T07:23:03.019Z,23.82
2022-08-08T07:25:34.904Z,24.50
2022-08-08T07:28:12.456Z,25.50
2022-08-08T07:30:47.571Z,25.70
2022-08-08T07:33:17.698Z,25.34
2022-08-08T07:35:48.681Z,25.44
2022-08-08T07:38:25.444Z,25.25
2022-08-08T07:40:58.787Z,24.98
2022-08-08T07:43:37.187Z,24.57
2022-08-08T07:46:24.089Z,24.20
2022-08-08T07:48:53.394Z,23.65
2022-08-08T07:51:44.275Z,23.79
2022-08-08T07:54:26.643Z,24.00
2022-08-08T07:57:03.804Z,24.12
2022-08-08T07:59:45.317Z,24.27
2022-08-08T08:02:34.551Z,23.97
2022-08-08T08:05:14.999Z,23.42
2022-08-08T08:07:53.150Z,23.14
2022-08-08T08:10:30.583Z,23.34
2022-08-08T08:13:25.209Z,23.76
2022-08-08T08:16:12.339Z,24.10
2022-08-08T08:18:52.210Z,24.51
2022-08-08T08:21:35.383Z,24.55
2022-08-08T08:24:15.773Z,24.73
2022-08-08T08:26:46.802Z,24.91
2022-08-08T08:29:16.693Z,24.30
2022-08-08T08:31:54.137Z,24.38
2022-08-08T08:34:32.157Z,24.59
2022-08-08T08:37:07.523Z,25.01
2022-08-08T08:40:00.096Z,25.45
2022-08-08T08:42:35.117Z,25.95
2022-08-08T08:45:21.136Z,25.53
2022-08-08T08:47:53.602Z,25.61
2022-08-08T08:50:32.951Z,25.65
2022-08-08T08:53:54.744Z,25.30
2022-08-08T08:55:55.427Z,25.54
2022-08-08T08:58:28.775Z,25.19
2022-08-08T09:01:08.579Z,24.76
2022-08-08T09:03:46.771Z,25.52
2022-08-08T09:06:28.803Z,25.23
2022-08-08T09:09:07.181Z,25.59
2022-08-08T09:12:01.382Z,25.89
2022-08-08T09:14:30.369Z,25.82
2022-08-08T09:16:57.768Z,25.66
2022-08-08T09:21:58.405Z,26.02
2022-08-08T09:22:25.985Z,25.85
2022-08-08T09:24:56.197Z,25.73
2022-08-08T09:27:41.940Z,25.68
2022-08-08T09:30:17.538Z,26.10
2022-08-08T09:33:01.432Z,25.55
2022-08-08T09:35:37.957Z,25.59
2022-08-08T09:38:06.129Z,25.09
2022-08-08T09:40:51.277Z,25.22
2022-08-08T09:43:41.248Z,25.44
2022-08-08T09:46:30.837Z,26.17
2022-08-08T09:49:18.564Z,26.05
2022-08-08T09:52:06.169Z,26.69
2022-08-08T09:54:41.961Z,27.01
2022-08-08T09:57:16.418Z,27.41
2022-08-08T10:00:02.874Z,27.27
2022-08-08T10:02:40.098Z,26.53
2022-08-08T10:05:14.761Z,27.10
2022-08-08T10:08:01.114Z,26.39
2022-08-08T10:10:30.110Z,25.95
2022-08-08T10:13:14.386Z,26.28
2022-08-08T10:16:00.254Z,26.20
2022-08-08T10:18:30.251Z,25.87
2022-08-08T10:21:22.655Z,25.91
2022-08-08T10:23:55.583Z,25.98
2022-08-08T10:26:56.645Z,25.48
2022-08-08T10:29:22.879Z,25.62
2022-08-08T10:32:15.866Z,26.43
2022-08-08T10:34:57.191Z,26.30
2022-08-08T10:37:30.530Z,26.35
2022-08-08T10:40:02.380Z,26.16
2022-08-08T10:42:37.357Z,27.03
2022-08-08T10:45:08.876Z,27.43
2022-08-08T10:47:43.977Z,27.57
2022-08-08T10:50:16.072Z,27.71
2022-08-08T10:52:44.360Z,27.48
2022-08-08T10:55:15.623Z,27.37
2022-08-08T10:58:05.965Z,27.86
2022-08-08T11:00:44.502Z,27.01
2022-08-08T11:03:52.458Z,26.62
2022-08-08T11:06:12.275Z,26.64
2022-08-08T11:08:50.089Z,26.41
2022-08-08T11:12:00.819Z,27.31
2022-08-08T11:14:12.365Z,27.07
2022-08-08T11:16:46.915Z,26.36
2022-08-08T11:19:17.973Z,26.63
2022-08-08T11:21:55.328Z,26.74
2022-08-08T11:24:26.602Z,26.76
2022-08-08T11:26:58.559Z,26.49
2022-08-08T11:29:41.843Z,26.53
2022-08-08T11:32:18.968Z,27.33
2022-08-08T11:35:27.998Z,27.25
2022-08-08T11:38:35.433Z,26.49
2022-08-08T11:40:32.528Z,27.35
2022-08-08T11:43:01.180Z,26.95
2022-08-08T11:45:36.738Z,26.83
2022-08-08T11:48:20.348Z,26.58
2022-08-08T11:50:52.541Z,26.77
2022-08-08T11:53:21.218Z,26.64
2022-08-08T11:55:53.273Z,26.42
2022-08-08T11:58:33.909Z,26.37
2022-08-08T12:01:12.405Z,26.44
2022-08-08T12:03:47.866Z,27.28
2022-08-08T12:06:22.125Z,27.67
2022-08-08T12:08:51.718Z,27.80
2022-08-08T12:11:23.223Z,26.86
2022-08-08T12:14:04.731Z,27.30
2022-08-08T12:16:43.446Z,27.33
2022-08-08T12:19:14.643Z,27.37
2022-08-08T12:21:59.515Z,27.30
2022-08-08T12:24:31.616Z,27.73
2022-08-08T12:26:59.332Z,27.33
2022-08-08T12:29:40.209Z,27.75
2022-08-08T12:32:17.233Z,27.34
2022-08-08T12:34:57.548Z,27.32
2022-08-08T12:37:41.223Z,27.37
2022-08-08T12:40:23.822Z,27.19
2022-08-08T12:42:53.536Z,27.41
2022-08-08T12:45:57.854Z,27.78
2022-08-08T12:48:35.986Z,28.22
2022-08-08T12:51:04.619Z,27.65
2022-08-08T12:53:42.028Z,27.29
2022-08-08T12:56:19.653Z,27.25
2022-08-08T12:58:54.290Z,26.87
2022-08-08T13:01:36.869Z,27.34
2022-08-08T13:04:18.902Z,27.34
2022-08-08T13:06:56.396Z,27.63
2022-08-08T13:09:32.962Z,27.86
2022-08-08T13:12:36.740Z,27.90
2022-08-08T13:14:52.849Z,28.12
2022-08-08T13:18:09.013Z,28.22
2022-08-08T13:20:15.356Z,27.79
2022-08-08T13:22:45.805Z,27.63
2022-08-08T13:25:21.248Z,27.93
2022-08-08T13:27:53.173Z,28.11
2022-08-08T13:30:26.492Z,27.43
2022-08-08T13:32:57.532Z,27.34
2022-08-08T13:35:29.436Z,27.63
2022-08-08T13:38:08.700Z,27.80
2022-08-08T13:40:44.837Z,27.99
2022-08-08T13:43:16.268Z,27.56
2022-08-08T13:45:47.281Z,27.34
2022-08-08T13:48:16.862Z,27.36
2022-08-08T13:50:52.543Z,27.45
2022-08-08T13:53:31.548Z,27.55
2022-08-08T13:56:11.079Z,27.58
2022-08-08T13:58:57.699Z,27.27
2022-08-08T14:01:41.690Z,27.12
2022-08-08T14:04:22.383Z,27.17
2022-08-08T14:06:58.729Z,27.58
2022-08-08T14:10:04.452Z,27.90
2022-08-08T14:12:20.676Z,27.91
2022-08-08T14:14:48.277Z,28.02
2022-08-08T14:17:22.624Z,28.04
2022-08-08T14:20:07.612Z,27.93
2022-08-08T14:22:42.927Z,27.76
2022-08-08T14:25:17.774Z,27.65
2022-08-08T14:27:59.425Z,27.45
2022-08-08T14:30:34.824Z,27.59
2022-08-08T14:33:02.839Z,27.49
2022-08-08T14:35:41.448Z,27.39
2022-08-08T14:38:33.262Z,27.36
2022-08-08T14:40:59.929Z,27.40
2022-08-08T14:44:02.702Z,27.41
2022-08-08T14:46:31.005Z,27.40
2022-08-08T14:49:09.286Z,27.44
2022-08-08T14:51:53.131Z,27.41
2022-08-08T14:54:28.679Z,27.45
2022-08-08T14:56:57.947Z,27.44
2022-08-08T14:59:44.689Z,27.50
2022-08-08T15:02:15.589Z,27.34
2022-08-08T15:04:43.320Z,27.01
2022-08-08T15:07:24.103Z,26.92
2022-08-08T15:09:52.590Z,26.91
2022-08-08T15:12:22.331Z,26.77
2022-08-08T15:14:56.548Z,26.69
2022-08-08T15:17:23.997Z,26.90
2022-08-08T15:19:51.639Z,27.08
2022-08-08T15:22:23.822Z,27.13
2022-08-08T15:24:52.086Z,27.17
2022-08-08T15:28:05.146Z,27.18
2022-08-08T15:30:12.643Z,27.16
2022-08-08T15:32:43.137Z,27.22
2022-08-08T15:35:11.871Z,27.21
2022-08-08T15:37:43.675Z,26.99
2022-08-08T15:40:15.484Z,26.85
2022-08-08T15:42:47.572Z,26.85
2022-08-08T15:45:18.390Z,26.71
2022-08-08T15:48:04.117Z,26.58
2022-08-08T15:50:56.516Z,26.55
2022-08-08T15:53:28.089Z,26.55
2022-08-08T15:56:00.876Z,26.44
2022-08-08T15:58:31.778Z,26.69
2022-08-08T16:01:00.684Z,26.76
2022-08-08T16:03:28.202Z,26.91
2022-08-08T16:06:01.727Z,26.93
2022-08-08T16:08:29.805Z,26.98
2022-08-08T16:13:27.359Z,26.99
2022-08-08T16:13:46.442Z,26.97
2022-08-08T16:16:18.033Z,26.98
2022-08-08T16:18:56.620Z,26.97
2022-08-08T16:21:27.706Z,27.00
2022-08-08T16:23:56.290Z,26.83
2022-08-08T16:26:33.942Z,26.72
2022-08-08T16:29:08.752Z,26.65
2022-08-08T16:31:41.991Z,26.63
2022-08-08T16:34:17.077Z,26.52
2022-08-08T16:36:49.488Z,26.29
2022-08-08T16:39:49.203Z,26.24
2022-08-08T16:42:06.321Z,26.23
2022-08-08T16:44:34.570Z,26.29
2022-08-08T16:47:21.698Z,26.29
2022-08-08T16:49:59.373Z,26.10
2022-08-08T16:55:03.425Z,26.00
2022-08-08T16:55:28.077Z,26.04
2022-08-08T16:58:14.836Z,26.09
2022-08-08T17:00:48.658Z,25.94
2022-08-08T17:03:24.899Z,25.98
2022-08-08T17:06:05.756Z,25.95
2022-08-08T17:08:53.129Z,25.90
2022-08-08T17:14:19.053Z,25.89
2022-08-08T17:16:57.721Z,25.72
2022-08-08T17:19:28.922Z,25.76
2022-08-08T17:21:57.301Z,25.69
2022-08-08T17:24:28.008Z,25.60
2022-08-08T17:26:58.783Z,25.66
2022-08-08T17:29:26.756Z,25.34
2022-08-08T17:31:54.191Z,25.55
2022-08-08T17:34:36.772Z,25.22
2022-08-08T17:37:13.863Z,25.26
2022-08-08T17:40:02.891Z,25.46
2022-08-08T17:42:29.402Z,25.15
2022-08-08T17:44:58.404Z,25.14
2022-08-08T17:47:27.515Z,24.88
2022-08-08T17:50:01.046Z,25.16
2022-08-08T17:52:34.214Z,25.08
2022-08-08T17:55:05.218Z,25.19
2022-08-08T17:57:37.609Z,24.98
2022-08-08T18:00:13.299Z,25.14
2022-08-08T18:03:02.125Z,25.02
2022-08-08T18:05:49.411Z,25.09
2022-08-08T18:08:36.883Z,24.69
2022-08-08T18:11:11.817Z,24.84
2022-08-08T18:13:43.195Z,24.76
2022-08-08T18:16:11.618Z,24.86
2022-08-08T18:18:45.202Z,24.53
2022-08-08T18:21:34.882Z,24.20
2022-08-08T18:24:02.413Z,24.01
2022-08-08T18:26:29.973Z,24.00
2022-08-08T18:28:57.805Z,24.08
2022-08-08T18:31:27.664Z,24.10
2022-08-08T18:34:12.381Z,24.07
2022-08-08T18:36:44.540Z,23.89
2022-08-08T18:39:16.449Z,23.73
2022-08-08T18:41:59.876Z,23.46
2022-08-08T18:44:33.153Z,23.28
2022-08-08T18:47:03.735Z,23.28
2022-08-08T18:49:40.831Z,23.13
2022-08-08T18:52:22.647Z,23.24
2022-08-08T18:54:59.792Z,22.88
2022-08-08T18:57:31.594Z,22.79
2022-08-08T19:00:07.522Z,22.65
2022-08-08T19:02:38.176Z,22.51
2022-08-08T19:05:16.068Z,22.37
2022-08-08T19:07:52.085Z,22.24
2022-08-08T19:10:22.221Z,22.43
2022-08-08T19:12:53.484Z,23.10
2022-08-08T19:15:21.650Z,22.72
2022-08-08T19:18:31.186Z,22.58
2022-08-08T19:20:40.257Z,22.50
2022-08-08T19:23:10.868Z,22.14
2022-08-08T19:26:26.822Z,22.42
2022-08-08T19:28:27.856Z,22.13
2022-08-08T19:31:03.970Z,22.22
2022-08-08T19:33:52.235Z,22.16
2022-08-08T19:36:25.361Z,21.91
2022-08-08T19:38:55.829Z,21.68
2022-08-08T19:41:27.939Z,21.54
2022-08-08T19:44:03.153Z,21.38
2022-08-08T19:46:33.180Z,21.19
2022-08-08T19:49:01.228Z,21.05
2022-08-08T19:51:34.486Z,20.96
2022-08-08T19:54:02.422Z,20.76
2022-08-08T19:56:40.097Z,20.72
2022-08-08T19:59:08.910Z,20.62
2022-08-08T20:02:01.086Z,20.41
2022-08-08T20:04:25.735Z,20.40
2022-08-08T20:06:53.790Z,20.33
2022-08-08T20:09:24.426Z,20.33
2022-08-08T20:11:53.747Z,20.28
2022-08-08T20:14:33.971Z,20.12
2022-08-08T20:17:03.257Z,19.95
2022-08-08T20:19:33.417Z,19.78
2022-08-08T20:22:04.796Z,20.02
2022-08-08T20:24:32.675Z,19.69
2022-08-08T20:27:05.062Z,19.73
2022-08-08T20:29:55.371Z,19.73
2022-08-08T20:32:26.653Z,19.74
2022-08-08T20:35:00.855Z,19.76
2022-08-08T20:37:46.765Z,19.65
2022-08-08T20:40:17.429Z,19.66
2022-08-08T20:42:54.661Z,19.68
2022-08-08T20:45:58.140Z,19.60
2022-08-08T20:48:12.986Z,19.69
2022-08-08T20:50:48.607Z,19.64
2022-08-08T20:53:16.690Z,19.54
2022-08-08T20:56:03.406Z,19.54
2022-08-08T20:58:32.104Z,19.57
2022-08-08T21:00:59.494Z,19.54
2022-08-08T21:03:29.863Z,19.46
2022-08-08T21:05:59.417Z,19.24
2022-08-08T21:08:35.169Z,19.23
2022-08-08T21:11:09.664Z,19.18
2022-08-08T21:13:40.868Z,19.28
2022-08-08T21:16:18.106Z,19.16
2022-08-08T21:18:48.384Z,19.29
2022-08-08T21:21:20.423Z,19.26
2022-08-08T21:24:11.868Z,19.19
2022-08-08T21:26:51.254Z,19.11
2022-08-08T21:29:21.698Z,19.07
2022-08-08T21:32:14.347Z,18.94
2022-08-08T21:34:56.932Z,19.06
2022-08-08T21:37:55.369Z,18.93
2022-08-08T21:40:31.255Z,18.84
2022-08-08T21:42:59.158Z,18.97
2022-08-08T21:47:59.059Z,18.87
2022-08-08T21:48:35.260Z,18.76
2022-08-08T21:51:10.221Z,18.70
2022-08-08T21:54:36.961Z,18.69
2022-08-08T21:56:31.351Z,18.53
2022-08-08T21:59:05.661Z,18.58
2022-08-08T22:01:39.140Z,18.51
2022-08-08T22:04:10.538Z,18.60
2022-08-08T22:06:40.758Z,18.65
2022-08-08T22:09:10.037Z,18.46
2022-08-08T22:12:02.238Z,18.36
2022-08-08T22:14:26.944Z,18.30
2022-08-08T22:17:01.154Z,18.38
2022-08-08T22:19:29.425Z,18.39
2022-08-08T22:21:57.539Z,18.30
2022-08-08T22:24:28.302Z,18.22
2022-08-08T22:27:01.811Z,18.18
2022-08-08T22:29:59.522Z,18.22
2022-08-08T22:32:20.474Z,18.25
2022-08-08T22:34:50.554Z,18.20
2022-08-08T22:37:49.260Z,18.19
2022-08-08T22:40:06.613Z,18.15
2022-08-08T22:42:34.501Z,18.04
2022-08-08T22:45:02.727Z,18.04
2022-08-08T22:47:34.606Z,17.86
2022-08-08T22:50:09.976Z,17.85
2022-08-08T22:53:22.439Z,17.84
2022-08-08T22:55:59.826Z,17.84
2022-08-08T22:58:30.848Z,17.65
2022-08-08T23:00:59.775Z,17.74
2022-08-08T23:03:34.428Z,17.66
2022-08-08T23:06:17.464Z,17.53
2022-08-08T23:08:55.542Z,17.55
2022-08-08T23:12:17.312Z,17.51
2022-08-08T23:14:15.225Z,17.50
2022-08-08T23:16:43.784Z,17.43
2022-08-08T23:19:15.992Z,17.46
2022-08-08T23:21:45.678Z,17.32
2022-08-08T23:24:22.319Z,17.32
2022-08-08T23:26:52.949Z,17.27
2022-08-08T23:29:23.714Z,17.33
2022-08-08T23:31:51.135Z,17.33
2022-08-08T23:34:20.087Z,17.24
2022-08-08T23:36:48.812Z,17.27
2022-08-08T23:39:16.364Z,17.05
2022-08-08T23:41:47.196Z,17.06
2022-08-08T23:44:18.726Z,17.21
2022-08-08T23:49:02.739Z,16.97
2022-08-08T23:49:35.561Z,16.97
2022-08-08T23:52:06.034Z,16.93
2022-08-08T23:54:41.603Z,16.99
2022-08-08T23:57:26.558Z,16.85
